Time;durP1;ratioP1;P1;durP2;ratioP2;P2;SDS_P1;SDS_P2;PMS_P1;PMS_P2;Temp;Humidity;BMP_temperature;BMP_pressure;BME280_temperature;BME280_humidity;BME280_pressure;Samples;Min_cycle;Max_cycle;Signal;HPM_P1;HPM_P2
2022/03/31 00:00:17;;;;;;;34.10;15.13;;;;;;;;;;5095170;28;20209;-82
2022/03/31 00:02:43;;;;;;;32.90;15.90;;;;;;;;;;5094860;28;20183;-82
2022/03/31 00:05:09;;;;;;;39.33;17.20;;;;;;;;;;5095303;28;20220;-81
2022/03/31 00:07:35;;;;;;;40.43;17.27;;;;;;;;;;5076411;28;20634;-81
2022/03/31 00:10:03;;;;;;;31.47;14.80;;;4.40;99.90;;;;;;5094471;28;20176;-81
2022/03/31 00:12:29;;;;;;;39.27;18.17;;;;;;;;;;5094444;28;20657;-81
2022/03/31 00:14:55;;;;;;;34.63;16.53;;;;;;;;;;5094492;28;20178;-81
2022/03/31 00:17:20;;;;;;;39.57;18.73;;;4.20;99.90;;;;;;5094755;28;20183;-81
2022/03/31 00:19:46;;;;;;;39.87;19.47;;;4.10;99.90;;;;;;5094798;28;20592;-82
2022/03/31 00:22:11;;;;;;;34.93;16.33;;;4.10;99.90;;;;;;5094523;28;20218;-82
2022/03/31 00:24:37;;;;;;;32.60;16.90;;;;;;;;;;5094839;28;20262;-81
2022/03/31 00:27:04;;;;;;;31.83;14.97;;;4.00;99.90;;;;;;5094591;28;20186;-81
2022/03/31 00:29:30;;;;;;;27.63;15.60;;;;;;;;;;5077212;28;20238;-82
2022/03/31 00:31:56;;;;;;;29.67;15.10;;;;;;;;;;5093593;28;20218;-81
2022/03/31 00:34:22;;;;;;;37.60;17.57;;;3.70;99.90;;;;;;5060483;28;20217;-81
2022/03/31 00:36:48;;;;;;;28.83;15.50;;;3.70;99.90;;;;;;5094295;28;20757;-82
2022/03/31 00:39:32;;;;;;;32.77;15.57;;;;;;;;;;5094646;28;20189;-81
2022/03/31 00:41:59;;;;;;;27.37;14.20;;;3.60;99.90;;;;;;5094543;28;20203;-81
2022/03/31 00:44:25;;;;;;;28.13;15.97;;;;;;;;;;5094576;28;20186;-81
2022/03/31 00:46:52;;;;;;;30.17;16.00;;;3.50;99.90;;;;;;5094253;28;20174;-81
2022/03/31 00:49:19;;;;;;;32.33;14.23;;;;;;;;;;5094556;28;20173;-81
2022/03/31 00:51:46;;;;;;;24.80;13.23;;;;;;;;;;5094076;28;20649;-81
2022/03/31 00:54:12;;;;;;;24.97;15.13;;;3.20;99.90;;;;;;5093920;28;20180;-81
2022/03/31 00:56:38;;;;;;;29.20;14.33;;;;;;;;;;5094041;28;20181;-82
2022/03/31 00:59:06;;;;;;;25.60;12.60;;;3.20;99.90;;;;;;5093478;28;20528;-81
2022/03/31 01:01:38;;;;;;;29.57;14.87;;;3.20;99.90;;;;;;5093734;28;20210;-81
2022/03/31 01:04:05;;;;;;;22.27;11.43;;;;;;;;;;5093553;28;20189;-81
2022/03/31 01:06:31;;;;;;;22.27;12.33;;;;;;;;;;5093549;28;20180;-81
2022/03/31 01:08:57;;;;;;;16.37;8.67;;;;;;;;;;5093381;28;20181;-80
2022/03/31 01:11:23;;;;;;;17.93;8.83;;;;;;;;;;5094065;28;20238;-81
2022/03/31 01:13:50;;;;;;;11.33;7.93;;;;;;;;;;5093749;28;20656;-84
2022/03/31 01:16:16;;;;;;;13.40;7.63;;;;;;;;;;5093858;28;20177;-81
2022/03/31 01:18:42;;;;;;;12.87;7.07;;;;;;;;;;5093709;28;20244;-81
2022/03/31 01:21:11;;;;;;;11.63;8.00;;;;;;;;;;5075431;28;20203;-82
2022/03/31 01:23:37;;;;;;;11.20;7.37;;;;;;;;;;5093734;28;20184;-81
2022/03/31 01:26:10;;;;;;;11.90;7.20;;;2.60;99.90;;;;;;5093198;28;20175;-81
2022/03/31 01:28:45;;;;;;;13.90;7.20;;;2.30;99.90;;;;;;5093845;28;20194;-81
2022/03/31 01:31:11;;;;;;;13.53;7.90;;;;;;;;;;5093447;28;20171;-81
2022/03/31 01:33:37;;;;;;;13.57;7.23;;;2.20;99.90;;;;;;5093584;28;20182;-80
2022/03/31 01:36:05;;;;;;;14.10;7.00;;;1.90;99.90;;;;;;5083978;28;20274;-81
2022/03/31 01:38:32;;;;;;;11.00;6.10;;;;;;;;;;5114282;28;20182;-80
2022/03/31 01:40:59;;;;;;;10.10;6.37;;;;;;;;;;5113685;28;20696;-82
2022/03/31 01:43:26;;;;;;;8.37;5.73;;;1.80;99.90;;;;;;5118247;28;20171;-81
2022/03/31 01:45:53;;;;;;;10.23;5.80;;;1.90;99.90;;;;;;5120689;27;20626;-81
2022/03/31 01:48:19;;;;;;;9.90;6.90;;;1.80;99.90;;;;;;5120561;27;20205;-83
2022/03/31 01:50:45;;;;;;;10.00;6.67;;;;;;;;;;5120901;27;20182;-81
2022/03/31 01:53:14;;;;;;;8.13;6.40;;;;;;;;;;5120467;28;20178;-81
2022/03/31 01:55:40;;;;;;;8.70;5.47;;;;;;;;;;5120316;28;20201;-81
2022/03/31 01:58:06;;;;;;;8.53;5.97;;;;;;;;;;5120077;28;20234;-81
2022/03/31 02:00:32;;;;;;;8.30;5.23;;;;;;;;;;5120054;28;20251;-81
2022/03/31 02:02:59;;;;;;;8.67;5.03;;;;;;;;;;5120208;28;20189;-81
2022/03/31 02:05:25;;;;;;;5.40;4.40;;;;;;;;;;5119961;28;20171;-80
2022/03/31 02:07:57;;;;;;;6.57;4.60;;;1.30;99.90;;;;;;5120085;28;20170;-80
2022/03/31 02:10:27;;;;;;;5.93;4.30;;;1.50;99.90;;;;;;5112321;27;20226;-81
2022/03/31 02:12:54;;;;;;;6.17;4.30;;;1.60;99.90;;;;;;5100258;28;20178;-80
2022/03/31 02:15:20;;;;;;;6.67;4.53;;;;;;;;;;5099327;28;20175;-80
2022/03/31 02:17:46;;;;;;;7.20;4.67;;;;;;;;;;5099449;28;20174;-82
2022/03/31 02:20:13;;;;;;;6.10;3.97;;;;;;;;;;5099516;28;20178;-80
2022/03/31 02:22:39;;;;;;;5.97;4.27;;;;;;;;;;5099748;28;20646;-81
2022/03/31 02:25:08;;;;;;;5.60;4.17;;;1.40;99.90;;;;;;5098046;28;20265;-81
2022/03/31 02:27:34;;;;;;;6.17;4.57;;;;;;;;;;5099597;28;20179;-80
2022/03/31 02:30:00;;;;;;;7.13;5.43;;;;;;;;;;5099308;28;20179;-81
2022/03/31 02:32:27;;;;;;;6.53;4.70;;;;;;;;;;5099403;28;20178;-81
2022/03/31 02:34:53;;;;;;;6.37;4.40;;;;;;;;;;5099560;28;20236;-81
2022/03/31 02:37:19;;;;;;;7.70;4.87;;;;;;;;;;5082324;28;20230;-81
2022/03/31 02:39:45;;;;;;;6.90;4.80;;;;;;;;;;5079320;28;20635;-81
2022/03/31 02:42:11;;;;;;;5.73;4.43;;;;;;;;;;5079078;28;20288;-81
2022/03/31 02:44:37;;;;;;;5.90;4.20;;;;;;;;;;5079527;28;20263;-81
2022/03/31 02:47:03;;;;;;;8.50;5.03;;;1.50;99.90;;;;;;5078977;28;20233;-82
2022/03/31 02:49:30;;;;;;;5.60;4.47;;;;;;;;;;5079068;28;20186;-81
2022/03/31 02:51:56;;;;;;;5.73;3.90;;;;;;;;;;5061209;28;20205;-81
2022/03/31 02:57:06;;;;;;;6.63;4.33;;;;;;;;;;5075519;28;20178;-81
2022/03/31 02:59:33;;;;;;;6.90;4.30;;;;;;;;;;5075893;28;20689;-81
2022/03/31 03:01:59;;;;;;;6.20;4.17;;;;;;;;;;5075785;28;20199;-81
2022/03/31 03:04:25;;;;;;;6.00;4.27;;;;;;;;;;5075407;28;20190;-81
2022/03/31 03:06:51;;;;;;;6.83;4.27;;;;;;;;;;5075683;28;20263;-80
2022/03/31 03:09:17;;;;;;;6.80;4.10;;;;;;;;;;5075743;28;20218;-80
2022/03/31 03:11:43;;;;;;;5.97;4.00;;;;;;;;;;5075406;28;20187;-81
2022/03/31 03:14:12;;;;;;;5.47;3.93;;;;;;;;;;5075189;28;20524;-80
2022/03/31 03:16:38;;;;;;;6.00;4.20;;;;;;;;;;5075544;28;20171;-81
2022/03/31 03:19:04;;;;;;;7.33;4.97;;;;;;;;;;5040775;28;20195;-84
2022/03/31 03:21:30;;;;;;;5.40;4.07;;;;;;;;;;5075561;28;20211;-81
2022/03/31 03:23:56;;;;;;;5.43;4.07;;;;;;;;;;5075318;28;20187;-81
2022/03/31 03:26:23;;;;;;;7.47;4.73;;;;;;;;;;5075087;28;20175;-82
2022/03/31 03:28:49;;;;;;;5.47;4.37;;;;;;;;;;5074952;28;20211;-81
2022/03/31 03:31:15;;;;;;;5.53;4.27;;;;;;;;;;5075298;28;20183;-81
2022/03/31 03:33:41;;;;;;;7.70;4.47;;;;;;;;;;5075125;28;20628;-81
2022/03/31 03:36:10;;;;;;;4.63;4.00;;;1.40;99.90;;;;;;5074968;28;20230;-82
2022/03/31 03:38:36;;;;;;;8.20;4.70;;;;;;;;;;5057416;28;20183;-81
2022/03/31 03:41:03;;;;;;;6.00;4.17;;;;;;;;;;5074860;28;20203;-81
2022/03/31 03:43:30;;;;;;;5.60;4.40;;;;;;;;;;5075030;28;20254;-79
2022/03/31 03:45:56;;;;;;;8.90;5.03;;;;;;;;;;5057599;28;20278;-79
2022/03/31 03:48:22;;;;;;;7.53;4.60;;;;;;;;;;5074770;28;20683;-80
2022/03/31 03:50:48;;;;;;;7.23;5.20;;;;;;;;;;5074850;28;20244;-80
2022/03/31 03:53:15;;;;;;;7.67;5.33;;;;;;;;;;5074460;28;20269;-80
2022/03/31 03:55:41;;;;;;;6.80;4.80;;;;;;;;;;5074555;28;20187;-80
2022/03/31 03:58:07;;;;;;;6.80;4.67;;;;;;;;;;5074495;28;20245;-80
2022/03/31 04:00:33;;;;;;;5.80;4.40;;;;;;;;;;5074447;28;20227;-80
2022/03/31 04:02:59;;;;;;;5.30;4.23;;;;;;;;;;5056823;28;20191;-79
2022/03/31 04:05:25;;;;;;;7.87;5.00;;;;;;;;;;5073940;28;20172;-79
2022/03/31 04:07:51;;;;;;;5.10;4.50;;;;;;;;;;5055676;28;20651;-79
2022/03/31 04:10:17;;;;;;;5.60;4.83;;;;;;;;;;5073891;28;20183;-80
2022/03/31 04:12:43;;;;;;;6.17;4.70;;;;;;;;;;5056843;28;20186;-79
2022/03/31 04:15:13;;;;;;;6.00;5.10;;;1.10;99.90;;;;;;5074536;28;20183;-79
2022/03/31 04:17:40;;;;;;;9.07;6.63;;;;;;;;;;5074712;28;20562;-79
2022/03/31 04:20:06;;;;;;;8.73;5.27;;;1.30;99.90;;;;;;5074091;28;20178;-79
2022/03/31 04:22:33;;;;;;;5.60;4.73;;;;;;;;;;5073703;28;20187;-79
2022/03/31 04:24:59;;;;;;;13.07;9.33;;;;;;;;;;5072987;28;20667;-79
2022/03/31 04:27:25;;;;;;;14.83;8.70;;;;;;;;;;5055894;28;20277;-79
2022/03/31 04:29:52;;;;;;;10.00;6.07;;;;;;;;;;5056231;28;20241;-80
2022/03/31 04:32:18;;;;;;;10.87;6.40;;;;;;;;;;5073632;28;20183;-79
2022/03/31 04:34:43;;;;;;;8.00;5.57;;;1.40;99.90;;;;;;5075793;28;20186;-79
2022/03/31 04:37:09;;;;;;;9.73;6.90;;;;;;;;;;5076686;28;20231;-78
2022/03/31 04:39:35;;;;;;;13.07;6.77;;;;;;;;;;5076670;28;20179;-79
2022/03/31 04:42:02;;;;;;;12.17;7.33;;;;;;;;;;5077510;28;20211;-79
2022/03/31 04:44:28;;;;;;;11.33;5.57;;;;;;;;;;5099903;28;20210;-81
2022/03/31 04:46:54;;;;;;;8.33;5.50;;;;;;;;;;5099350;28;20187;-80
2022/03/31 04:49:20;;;;;;;8.33;6.30;;;;;;;;;;5103743;28;20194;-88
2022/03/31 04:51:46;;;;;;;5.57;4.57;;;;;;;;;;5115648;27;20191;-79
2022/03/31 04:54:13;;;;;;;7.23;5.13;;;;;;;;;;5090710;28;20189;-82
2022/03/31 04:56:39;;;;;;;6.33;4.83;;;;;;;;;;5094704;28;20194;-84
2022/03/31 04:59:05;;;;;;;10.83;5.70;;;;;;;;;;5115366;28;20190;-85
2022/03/31 05:01:31;;;;;;;14.93;7.30;;;;;;;;;;5118757;28;20221;-89
2022/03/31 05:03:57;;;;;;;11.00;6.63;;;;;;;;;;5094187;28;20195;-89
2022/03/31 05:06:23;;;;;;;19.30;7.67;;;;;;;;;;5111958;28;20206;-84
2022/03/31 05:08:49;;;;;;;27.63;10.63;;;;;;;;;;5089420;28;20186;-79
2022/03/31 05:11:15;;;;;;;13.43;6.43;;;;;;;;;;5086245;28;20742;-80
2022/03/31 05:13:41;;;;;;;15.20;6.60;;;;;;;;;;5053296;28;20262;-79
2022/03/31 05:16:07;;;;;;;13.23;6.03;;;;;;;;;;5060574;28;20247;-80
2022/03/31 05:18:33;;;;;;;27.37;10.30;;;;;;;;;;5083438;28;20198;-79
2022/03/31 05:21:00;;;;;;;11.33;6.53;;;;;;;;;;5087003;28;20211;-83
2022/03/31 05:23:26;;;;;;;17.17;8.43;;;;;;;;;;5057842;28;20217;-81
2022/03/31 05:25:52;;;;;;;15.13;7.73;;;;;;;;;;5078359;28;20236;-81
2022/03/31 05:28:18;;;;;;;22.80;9.07;;;;;;;;;;5092419;28;20182;-80
2022/03/31 05:30:44;;;;;;;36.97;11.93;;;;;;;;;;5092982;28;20643;-80
2022/03/31 05:33:11;;;;;;;24.53;9.33;;;;;;;;;;5059760;28;20545;-79
2022/03/31 05:35:37;;;;;;;23.37;8.37;;;;;;;;;;5056316;28;20242;-80
2022/03/31 05:38:03;;;;;;;14.50;6.60;;;;;;;;;;5086063;28;20195;-81
2022/03/31 05:40:29;;;;;;;19.03;8.27;;;;;;;;;;5079340;28;20224;-81
2022/03/31 05:42:55;;;;;;;16.97;7.63;;;;;;;;;;5073329;28;20218;-80
2022/03/31 05:45:22;;;;;;;21.13;8.70;;;;;;;;;;5076453;28;20675;-80
2022/03/31 05:47:48;;;;;;;11.87;7.30;;;;;;;;;;5086061;28;20244;-82
2022/03/31 05:50:14;;;;;;;21.00;8.13;;;;;;;;;;5088901;28;20272;-80
2022/03/31 05:52:42;;;;;;;13.70;6.37;;;;;;;;;;5088493;28;20235;-83
2022/03/31 05:55:09;;;;;;;10.77;6.47;;;;;;;;;;5075093;28;20449;-81
2022/03/31 05:57:35;;;;;;;9.17;6.47;;;;;;;;;;5064665;28;20243;-81
2022/03/31 06:00:03;;;;;;;13.27;7.77;;;;;;;;;;5078207;28;20185;-82
2022/03/31 06:02:29;;;;;;;16.93;8.33;;;;;;;;;;5074954;28;20213;-81
2022/03/31 06:04:55;;;;;;;12.30;7.60;;;;;;;;;;5070918;28;20199;-82
2022/03/31 06:07:21;;;;;;;21.57;8.83;;;;;;;;;;5068777;28;20256;-86
2022/03/31 06:09:47;;;;;;;8.93;6.17;;;;;;;;;;5073198;28;20182;-79
2022/03/31 06:12:13;;;;;;;11.53;6.17;;;;;;;;;;5055742;28;20199;-80
2022/03/31 06:14:39;;;;;;;11.47;6.70;;;;;;;;;;5066818;28;20274;-80
2022/03/31 06:17:05;;;;;;;10.17;7.20;;;;;;;;;;5067239;28;20274;-80
2022/03/31 06:19:31;;;;;;;14.47;8.27;;;;;;;;;;5070715;28;20195;-82
2022/03/31 06:21:57;;;;;;;12.93;6.97;;;;;;;;;;5082263;28;20213;-80
2022/03/31 06:24:23;;;;;;;15.13;8.30;;;;;;;;;;5076878;28;20191;-82
2022/03/31 06:26:49;;;;;;;11.47;7.87;;;;;;;;;;5091967;28;20631;-80
2022/03/31 06:29:15;;;;;;;13.83;8.63;;;;;;;;;;5091672;28;20224;-83
2022/03/31 06:31:41;;;;;;;14.93;8.17;;;;;;;;;;5095285;28;20210;-81
2022/03/31 06:34:08;;;;;;;23.70;9.40;;;;;;;;;;5094825;28;20201;-81
2022/03/31 06:36:34;;;;;;;11.33;7.07;;;;;;;;;;5094240;28;20338;-80
2022/03/31 06:39:00;;;;;;;15.50;7.63;;;;;;;;;;5091503;28;20185;-82
2022/03/31 06:41:26;;;;;;;18.33;9.17;;;;;;;;;;5077447;28;20206;-81
2022/03/31 06:43:52;;;;;;;24.80;10.80;;;;;;;;;;5094485;28;20191;-79
2022/03/31 06:46:18;;;;;;;22.13;9.30;;;;;;;;;;5094206;28;20195;-80
2022/03/31 06:48:48;;;;;;;20.13;9.37;;;;;;;;;;5074293;28;20196;-80
2022/03/31 06:51:14;;;;;;;18.13;8.73;;;;;;;;;;5088996;28;20193;-81
2022/03/31 06:53:42;;;;;;;20.63;8.90;;;;;;;;;;5094230;28;20245;-81
2022/03/31 06:56:09;;;;;;;24.97;11.43;;;;;;;;;;5103642;28;20184;-80
2022/03/31 06:58:36;;;;;;;20.23;10.77;;;;;;;;;;5086888;28;20191;-80
2022/03/31 07:01:02;;;;;;;18.87;10.27;;;;;;;;;;5094917;28;20197;-80
2022/03/31 07:03:28;;;;;;;15.97;8.50;;;;;;;;;;5094611;28;20674;-84
2022/03/31 07:05:55;;;;;;;22.20;10.27;;;;;;;;;;5093090;28;20185;-80
2022/03/31 07:08:21;;;;;;;21.77;10.73;;;;;;;;;;5090128;28;20183;-80
2022/03/31 07:10:47;;;;;;;19.17;11.13;;;;;;;;;;5092717;28;20899;-81
2022/03/31 07:13:13;;;;;;;26.23;12.07;;;;;;;;;;5073472;28;20275;-80
2022/03/31 07:15:39;;;;;;;16.37;10.37;;;1.70;99.90;;;;;;5076230;28;20254;-80
2022/03/31 07:18:05;;;;;;;17.83;10.27;;;1.60;99.90;;;;;;5076005;28;20193;-79
2022/03/31 07:20:32;;;;;;;20.50;12.63;;;;;;;;;;5063225;28;21013;-81
2022/03/31 07:22:58;;;;;;;26.50;12.20;;;;;;;;;;5072881;28;20195;-80
2022/03/31 07:25:24;;;;;;;15.87;10.50;;;;;;;;;;5077303;28;20274;-80
2022/03/31 07:27:50;;;;;;;15.43;9.43;;;2.10;99.90;;;;;;5081512;28;20236;-80
2022/03/31 07:30:18;;;;;;;27.00;11.33;;;2.10;99.90;;;;;;5059794;28;20241;-79
2022/03/31 07:32:52;;;;;;;24.67;10.43;;;2.10;99.90;;;;;;5081301;28;20254;-84
2022/03/31 07:35:18;;;;;;;28.03;12.20;;;2.10;99.90;;;;;;5080696;28;20187;-79
2022/03/31 07:37:45;;;;;;;21.30;10.03;;;;;;;;;;5091527;28;20261;-82
2022/03/31 07:40:11;;;;;;;30.17;12.43;;;;;;;;;;5077176;28;20183;-83
2022/03/31 07:42:37;;;;;;;34.40;17.40;;;;;;;;;;5095496;28;20282;-80
2022/03/31 07:45:03;;;;;;;25.17;11.20;;;2.20;99.90;;;;;;5075367;28;20794;-81
2022/03/31 07:47:29;;;;;;;22.57;11.10;;;;;;;;;;5089093;28;20183;-80
2022/03/31 07:49:56;;;;;;;21.70;9.57;;;;;;;;;;5088061;28;20788;-81
2022/03/31 07:52:22;;;;;;;22.13;10.50;;;;;;;;;;5072018;28;20187;-81
2022/03/31 07:54:48;;;;;;;32.90;14.87;;;;;;;;;;5088768;28;20794;-85
2022/03/31 07:57:14;;;;;;;18.07;9.93;;;;;;;;;;5086525;28;20529;-82
2022/03/31 07:59:41;;;;;;;14.73;8.47;;;;;;;;;;5092082;28;20178;-81
2022/03/31 08:02:07;;;;;;;20.57;9.53;;;;;;;;;;5086168;28;20683;-81
2022/03/31 08:04:33;;;;;;;15.57;8.17;;;;;;;;;;5070721;28;20196;-85
2022/03/31 08:06:59;;;;;;;19.53;10.37;;;;;;;;;;5089967;28;20197;-80
2022/03/31 08:09:26;;;;;;;21.10;11.23;;;;;;;;;;5075448;28;20274;-84
2022/03/31 08:11:52;;;;;;;21.83;10.87;;;;;;;;;;5083108;28;20651;-81
2022/03/31 08:14:19;;;;;;;21.73;11.00;;;2.40;99.90;;;;;;5097684;28;20210;-81
2022/03/31 08:16:49;;;;;;;19.37;11.20;;;2.30;99.90;;;;;;5079601;28;20191;-82
2022/03/31 08:19:17;;;;;;;19.87;9.87;;;2.30;99.90;;;;;;5069515;28;20213;-85
2022/03/31 08:21:44;;;;;;;24.27;13.83;;;;;;;;;;5085013;28;20222;-84
2022/03/31 08:24:11;;;;;;;17.73;9.83;;;;;;;;;;5061870;28;20198;-81
2022/03/31 08:26:37;;;;;;;27.10;12.77;;;;;;;;;;5084053;28;20199;-83
2022/03/31 08:29:04;;;;;;;30.90;15.27;;;;;;;;;;5064412;28;20188;-80
2022/03/31 08:31:30;;;;;;;23.37;11.90;;;;;;;;;;5072421;28;20193;-80
2022/03/31 08:33:56;;;;;;;25.40;15.17;;;;;;;;;;5081923;28;20230;-80
2022/03/31 08:36:22;;;;;;;28.97;15.67;;;2.30;99.90;;;;;;5086780;28;20277;-80
2022/03/31 08:38:48;;;;;;;23.00;14.03;;;2.40;99.90;;;;;;5092261;28;20183;-81
2022/03/31 08:41:16;;;;;;;15.47;9.23;;;2.40;99.90;;;;;;5081148;28;20258;-79
2022/03/31 08:43:42;;;;;;;13.87;9.43;;;2.40;99.90;;;;;;5081005;28;20202;-79
2022/03/31 08:46:10;;;;;;;16.03;9.77;;;2.50;99.90;;;;;;5072961;28;20290;-84
2022/03/31 08:48:37;;;;;;;15.40;9.67;;;2.50;99.90;;;;;;5073135;28;20190;-82
2022/03/31 08:51:04;;;;;;;17.47;9.53;;;;;;;;;;5094085;28;20176;-80
2022/03/31 08:53:30;;;;;;;21.00;12.23;;;2.80;99.90;;;;;;5080941;28;20281;-87
2022/03/31 08:55:56;;;;;;;16.97;9.80;;;;;;;;;;5052809;28;20194;-81
2022/03/31 08:58:22;;;;;;;22.40;11.50;;;;;;;;;;5082134;28;20249;-87
2022/03/31 09:00:48;;;;;;;21.30;11.77;;;;;;;;;;5072614;28;20211;-81
2022/03/31 09:03:16;;;;;;;25.93;14.47;;;;;;;;;;5064294;28;20283;-81
2022/03/31 09:05:46;;;;;;;20.10;11.43;;;2.40;99.90;;;;;;5086747;28;20181;-80
2022/03/31 09:08:13;;;;;;;23.00;12.70;;;2.40;99.90;;;;;;5088750;28;20634;-83
2022/03/31 09:10:44;;;;;;;23.33;13.23;;;2.20;99.90;;;;;;5076437;28;20198;-87
2022/03/31 09:13:21;;;;;;;23.73;13.90;;;2.80;99.90;;;;;;5084473;28;20200;-80
2022/03/31 09:15:53;;;;;;;25.03;12.70;;;2.60;99.90;;;;;;5098774;28;20183;-80
2022/03/31 09:18:20;;;;;;;20.47;12.13;;;2.50;99.90;;;;;;5105365;28;20182;-83
2022/03/31 09:20:48;;;;;;;25.37;13.83;;;2.90;99.90;;;;;;5089556;28;20271;-84
2022/03/31 09:23:18;;;;;;;16.60;10.20;;;2.60;99.90;;;;;;5068475;28;20182;-79
2022/03/31 09:25:45;;;;;;;19.27;10.07;;;;;;;;;;5073730;28;20187;-81
2022/03/31 09:28:24;;;;;;;21.43;11.50;;;2.60;99.90;;;;;;5084695;28;20187;-80
2022/03/31 09:30:52;;;;;;;22.10;11.53;;;2.60;99.90;;;;;;5088620;28;20267;-80
2022/03/31 09:33:26;;;;;;;15.33;9.60;;;3.20;99.90;;;;;;5072466;28;20227;-79
2022/03/31 09:36:00;;;;;;;19.43;10.83;;;2.70;99.90;;;;;;5071981;28;20274;-79
2022/03/31 09:38:27;;;;;;;15.43;9.17;;;2.60;99.90;;;;;;5072003;28;20175;-79
2022/03/31 09:40:53;;;;;;;16.73;10.03;;;3.20;99.90;;;;;;5075374;28;20730;-82
2022/03/31 09:43:19;;;;;;;18.90;11.07;;;2.60;99.90;;;;;;5072472;28;20272;-78
2022/03/31 09:45:45;;;;;;;16.47;9.93;;;;;;;;;;5071964;28;20645;-78
2022/03/31 09:48:23;;;;;;;16.20;10.77;;;2.70;99.90;;;;;;5056510;28;20198;-80
2022/03/31 09:50:49;;;;;;;14.80;9.07;;;;;;;;;;5073010;28;20283;-79
2022/03/31 09:53:15;;;;;;;22.07;11.50;;;;;;;;;;5073623;28;20681;-85
2022/03/31 09:55:46;;;;;;;20.50;12.40;;;2.70;99.90;;;;;;5075039;28;20261;-81
2022/03/31 09:58:17;;;;;;;21.77;11.23;;;2.70;99.90;;;;;;5069690;28;20198;-81
2022/03/31 10:00:43;;;;;;;16.83;10.03;;;;;;;;;;5086450;28;20205;-79
2022/03/31 10:03:12;;;;;;;16.43;9.53;;;2.80;99.90;;;;;;5064095;28;20218;-81
2022/03/31 10:05:39;;;;;;;21.87;11.10;;;;;;;;;;5069140;28;20653;-81
2022/03/31 10:08:10;;;;;;;18.60;10.63;;;2.80;99.90;;;;;;5091605;28;20226;-79
2022/03/31 10:10:37;;;;;;;20.90;10.87;;;;;;;;;;5088485;28;20195;-77
2022/03/31 10:13:25;;;;;;;17.73;9.73;;;2.70;99.90;;;;;;5081111;28;20193;-79
2022/03/31 10:15:59;;;;;;;18.77;10.37;;;3.20;99.90;;;;;;5103096;28;20175;-79
2022/03/31 10:18:25;;;;;;;16.40;10.33;;;2.80;99.90;;;;;;5091887;28;20194;-79
2022/03/31 10:20:57;;;;;;;16.73;9.70;;;2.60;99.90;;;;;;5079204;28;20211;-79
2022/03/31 10:26:08;;;;;;;21.70;14.63;;;;;;;;;;5080505;28;20188;-78
2022/03/31 10:28:34;;;;;;;18.33;10.37;;;;;;;;;;5098543;28;20216;-78
2022/03/31 10:31:02;;;;;;;18.87;11.17;;;2.80;99.90;;;;;;5079142;28;20197;-80
2022/03/31 10:33:34;;;;;;;14.80;10.23;;;3.00;99.90;;;;;;5098181;28;20177;-79
2022/03/31 10:36:09;;;;;;;17.13;9.97;;;2.70;99.90;;;;;;5100199;28;20232;-79
2022/03/31 10:38:35;;;;;;;19.73;11.33;;;2.50;99.90;;;;;;5078702;28;20192;-79
2022/03/31 10:41:05;;;;;;;20.83;11.47;;;2.90;99.90;;;;;;5052228;28;20560;-78
2022/03/31 10:43:32;;;;;;;19.00;10.50;;;2.80;99.90;;;;;;5096903;28;20195;-81
2022/03/31 10:46:03;;;;;;;18.97;10.57;;;2.80;99.90;;;;;;5100432;28;20203;-85
2022/03/31 10:48:31;;;;;;;17.07;11.10;;;2.80;99.90;;;;;;5111713;28;20168;-82
2022/03/31 10:51:08;;;;;;;15.40;10.23;;;3.10;99.90;;;;;;5091279;28;20200;-83
2022/03/31 10:53:39;;;;;;;18.87;11.30;;;2.90;99.90;;;;;;5083169;28;20184;-85
2022/03/31 10:56:19;;;;;;;19.73;10.80;;;2.90;99.90;;;;;;5089479;28;20195;-79
2022/03/31 10:58:45;;;;;;;19.93;11.53;;;2.90;99.90;;;;;;5101243;28;20177;-91
2022/03/31 11:01:11;;;;;;;15.50;10.20;;;3.10;99.90;;;;;;5107548;28;20563;-83
2022/03/31 11:03:38;;;;;;;12.50;8.67;;;;;;;;;;5114825;28;20201;-81
2022/03/31 11:06:11;;;;;;;15.60;9.57;;;2.50;99.90;;;;;;5083981;28;20205;-87
2022/03/31 11:08:45;;;;;;;14.43;9.27;;;3.10;99.90;;;;;;5061912;28;20198;-80
2022/03/31 11:11:28;;;;;;;14.37;8.53;;;3.30;99.90;;;;;;5083427;28;20186;-78
2022/03/31 11:13:58;;;;;;;16.53;8.73;;;2.90;99.90;;;;;;5085778;28;20176;-80
2022/03/31 11:16:37;;;;;;;20.33;9.67;;;2.90;99.90;;;;;;5077054;28;20179;-78
2022/03/31 11:19:04;;;;;;;17.20;10.50;;;2.90;99.90;;;;;;5085717;28;20177;-80
2022/03/31 11:21:35;;;;;;;18.67;11.40;;;2.90;99.90;;;;;;5074116;28;20206;-81
2022/03/31 11:24:01;;;;;;;15.57;10.10;;;2.90;99.90;;;;;;5084997;28;20192;-80
2022/03/31 11:26:40;;;;;;;22.87;13.80;;;2.80;99.90;;;;;;5080525;28;20241;-80
2022/03/31 11:29:29;;;;;;;14.30;9.17;;;2.70;99.90;;;;;;5087474;28;20178;-80
2022/03/31 11:31:56;;;;;;;14.87;9.37;;;;;;;;;;5087278;28;20200;-82
2022/03/31 11:34:27;;;;;;;20.67;11.63;;;2.70;99.90;;;;;;5087540;28;20183;-81
2022/03/31 11:36:55;;;;;;;17.03;10.90;;;3.10;99.90;;;;;;5094503;28;20230;-80
2022/03/31 11:39:30;;;;;;;19.13;11.40;;;3.00;99.90;;;;;;5080493;28;20183;-81
2022/03/31 11:41:58;;;;;;;17.07;10.33;;;3.10;99.90;;;;;;5080655;28;20611;-87
2022/03/31 11:44:26;;;;;;;20.27;12.23;;;2.90;99.90;;;;;;5080088;28;20982;-82
2022/03/31 11:46:52;;;;;;;18.47;11.87;;;3.10;99.90;;;;;;5091795;28;20187;-80
2022/03/31 11:49:26;;;;;;;19.73;10.97;;;3.10;99.90;;;;;;5099682;28;20209;-79
2022/03/31 11:52:01;;;;;;;17.93;10.53;;;3.10;99.90;;;;;;5097580;28;20184;-81
2022/03/31 11:54:30;;;;;;;18.97;9.20;;;2.90;99.90;;;;;;5111062;28;20191;-80
2022/03/31 11:57:03;;;;;;;15.13;8.83;;;3.00;99.90;;;;;;5063252;28;20186;-81
2022/03/31 11:59:29;;;;;;;19.50;9.07;;;3.00;99.90;;;;;;5077759;28;20239;-79
2022/03/31 12:01:56;;;;;;;17.43;9.93;;;;;;;;;;5102960;28;20304;-83
2022/03/31 12:04:27;;;;;;;18.33;9.47;;;3.00;99.90;;;;;;5094935;28;20188;-79
2022/03/31 12:06:55;;;;;;;18.17;9.53;;;3.00;99.90;;;;;;5067108;28;20593;-79
2022/03/31 12:09:26;;;;;;;18.60;10.93;;;3.10;99.90;;;;;;5088695;28;20182;-79
2022/03/31 12:11:55;;;;;;;17.77;10.40;;;3.30;99.90;;;;;;5079440;28;20296;-79
2022/03/31 12:14:21;;;;;;;14.70;10.10;;;;;;;;;;5071024;28;20207;-80
2022/03/31 12:16:50;;;;;;;16.97;10.50;;;3.10;99.90;;;;;;5070712;28;20189;-87
2022/03/31 12:19:16;;;;;;;18.07;10.67;;;;;;;;;;5072840;28;20185;-79
2022/03/31 12:21:47;;;;;;;15.57;10.17;;;3.20;99.90;;;;;;5071381;28;20615;-84
2022/03/31 12:24:14;;;;;;;22.87;10.67;;;3.30;99.90;;;;;;5090357;28;20208;-80
2022/03/31 12:27:01;;;;;;;15.17;9.47;;;3.10;99.90;;;;;;5051977;28;20188;-79
2022/03/31 12:29:31;;;;;;;17.80;9.90;;;2.80;99.90;;;;;;5087573;28;20252;-80
2022/03/31 12:32:07;;;;;;;21.03;9.80;;;3.00;99.90;;;;;;5076658;28;20229;-79
2022/03/31 12:34:35;;;;;;;17.83;9.10;;;3.10;99.90;;;;;;5099939;28;20256;-79
2022/03/31 12:37:01;;;;;;;17.73;10.40;;;;;;;;;;5079012;28;20661;-82
2022/03/31 12:39:28;;;;;;;21.00;10.70;;;;;;;;;;5102097;28;20193;-80
2022/03/31 12:41:58;;;;;;;19.23;9.93;;;3.00;99.90;;;;;;5102856;28;20245;-82
2022/03/31 12:44:28;;;;;;;18.30;11.03;;;3.20;99.90;;;;;;5107693;28;20189;-79
2022/03/31 12:47:00;;;;;;;24.03;13.53;;;3.20;99.90;;;;;;5102163;28;20653;-85
2022/03/31 12:49:32;;;;;;;19.53;10.60;;;3.30;99.90;;;;;;5103763;28;20183;-81
2022/03/31 12:52:01;;;;;;;17.47;9.40;;;3.20;99.90;;;;;;5108312;27;20196;-84
2022/03/31 12:54:35;;;;;;;18.00;9.37;;;3.20;99.90;;;;;;5127217;27;20595;-82
2022/03/31 12:57:22;;;;;;;16.87;10.00;;;3.20;99.90;;;;;;5101554;27;20185;-80
2022/03/31 13:00:18;;;;;;;25.50;13.80;;;3.00;99.90;;;;;;5107193;27;20190;-80
2022/03/31 13:02:44;;;;;;;16.60;8.83;;;;;;;;;;5069648;28;20295;-81
2022/03/31 13:05:10;;;;;;;15.13;9.27;;;3.40;99.90;;;;;;5098591;27;20539;-81
2022/03/31 13:07:36;;;;;;;17.00;9.80;;;3.10;99.90;;;;;;5098130;28;20192;-80
2022/03/31 13:10:06;;;;;;;18.43;11.07;;;3.20;99.90;;;;;;5097494;28;20197;-82
2022/03/31 13:12:32;;;;;;;22.60;10.67;;;;;;;;;;5097797;28;20197;-78
2022/03/31 13:15:00;;;;;;;20.17;10.40;;;3.00;99.90;;;;;;5097653;28;20657;-80
2022/03/31 13:17:27;;;;;;;22.37;11.13;;;;;;;;;;5096915;27;20194;-79
2022/03/31 13:19:53;;;;;;;19.03;9.83;;;;;;;;;;5089106;28;20190;-84
2022/03/31 13:22:22;;;;;;;24.40;11.97;;;3.10;99.90;;;;;;5090391;28;20354;-82
2022/03/31 13:24:48;;;;;;;19.00;11.00;;;;;;;;;;5095322;28;20189;-84
2022/03/31 13:27:14;;;;;;;23.53;12.00;;;3.10;99.90;;;;;;5095691;28;20186;-80
2022/03/31 13:29:40;;;;;;;23.87;11.97;;;;;;;;;;5097850;27;20197;-81
2022/03/31 13:32:07;;;;;;;23.73;13.17;;;3.00;99.90;;;;;;5096819;28;20205;-79
2022/03/31 13:34:33;;;;;;;22.93;11.73;;;;;;;;;;5088867;28;20276;-83
2022/03/31 13:37:03;;;;;;;17.13;9.90;;;2.90;99.90;;;;;;5096628;28;20721;-79
2022/03/31 13:39:32;;;;;;;15.57;9.53;;;3.20;99.90;;;;;;5092774;28;20275;-86
2022/03/31 13:41:58;;;;;;;19.57;11.47;;;;;;;;;;5087753;28;20215;-85
2022/03/31 13:44:25;;;;;;;18.97;11.30;;;2.90;99.90;;;;;;5090993;28;20191;-79
2022/03/31 13:46:53;;;;;;;25.40;14.00;;;;;;;;;;5096438;28;20190;-80
2022/03/31 13:49:20;;;;;;;25.17;12.73;;;3.20;99.90;;;;;;5094349;28;20181;-79